sensor_id;sensor_type;location;lat;lon;timestamp;P1;P2;P0
47741;PMS5003;33504;52.066;6.096;2023-11-18T00:02:05;67;64;
47741;PMS5003;33504;52.066;6.096;2023-11-18T00:04:33;74;66;
47741;PMS5003;33504;52.066;6.096;2023-11-18T00:07:00;70;64;
47741;PMS5003;33504;52.066;6.096;2023-11-18T00:09:27;74;69;
47741;PMS5003;33504;52.066;6.096;2023-11-18T00:11:54;65;61;
47741;PMS5003;33504;52.066;6.096;2023-11-18T00:14:21;66;60;
47741;PMS5003;33504;52.066;6.096;2023-11-18T00:16:48;69;65;
47741;PMS5003;33504;52.066;6.096;2023-11-18T00:19:15;66;61;
47741;PMS5003;33504;52.066;6.096;2023-11-18T00:21:42;68;66;
47741;PMS5003;33504;52.066;6.096;2023-11-18T00:24:09;65;59;
47741;PMS5003;33504;52.066;6.096;2023-11-18T00:26:36;71;69;
47741;PMS5003;33504;52.066;6.096;2023-11-18T00:29:03;68;65;
47741;PMS5003;33504;52.066;6.096;2023-11-18T00:31:30;74;66;
47741;PMS5003;33504;52.066;6.096;2023-11-18T00:33:57;64;62;
47741;PMS5003;33504;52.066;6.096;2023-11-18T00:36:24;72;64;
47741;PMS5003;33504;52.066;6.096;2023-11-18T00:38:52;68;62;
47741;PMS5003;33504;52.066;6.096;2023-11-18T00:41:18;66;63;
47741;PMS5003;33504;52.066;6.096;2023-11-18T00:43:45;69;67;
47741;PMS5003;33504;52.066;6.096;2023-11-18T00:46:12;64;61;
47741;PMS5003;33504;52.066;6.096;2023-11-18T00:48:39;76;66;
47741;PMS5003;33504;52.066;6.096;2023-11-18T00:51:06;76;65;
47741;PMS5003;33504;52.066;6.096;2023-11-18T00:53:33;73;68;
47741;PMS5003;33504;52.066;6.096;2023-11-18T00:56:00;68;63;
47741;PMS5003;33504;52.066;6.096;2023-11-18T00:58:27;66;62;
47741;PMS5003;33504;52.066;6.096;2023-11-18T01:00:54;65;61;
47741;PMS5003;33504;52.066;6.096;2023-11-18T01:03:21;69;64;
47741;PMS5003;33504;52.066;6.096;2023-11-18T01:05:49;64;59;
47741;PMS5003;33504;52.066;6.096;2023-11-18T01:08:16;64;61;
47741;PMS5003;33504;52.066;6.096;2023-11-18T01:10:42;66;60;
47741;PMS5003;33504;52.066;6.096;2023-11-18T01:13:09;67;62;
47741;PMS5003;33504;52.066;6.096;2023-11-18T01:15:36;60;57;
47741;PMS5003;33504;52.066;6.096;2023-11-18T01:18:04;65;59;
47741;PMS5003;33504;52.066;6.096;2023-11-18T01:20:31;62;58;
47741;PMS5003;33504;52.066;6.096;2023-11-18T01:22:58;58;55;
47741;PMS5003;33504;52.066;6.096;2023-11-18T01:25:25;69;65;
47741;PMS5003;33504;52.066;6.096;2023-11-18T01:27:52;64;60;
47741;PMS5003;33504;52.066;6.096;2023-11-18T01:30:19;57;52;
47741;PMS5003;33504;52.066;6.096;2023-11-18T01:32:46;64;60;
47741;PMS5003;33504;52.066;6.096;2023-11-18T01:35:13;62;56;
47741;PMS5003;33504;52.066;6.096;2023-11-18T01:37:40;58;57;
47741;PMS5003;33504;52.066;6.096;2023-11-18T01:40:07;56;52;
47741;PMS5003;33504;52.066;6.096;2023-11-18T01:42:35;70;65;
47741;PMS5003;33504;52.066;6.096;2023-11-18T01:45:02;69;61;
47741;PMS5003;33504;52.066;6.096;2023-11-18T01:47:29;53;52;
47741;PMS5003;33504;52.066;6.096;2023-11-18T01:49:58;65;60;
47741;PMS5003;33504;52.066;6.096;2023-11-18T01:52:26;63;56;
47741;PMS5003;33504;52.066;6.096;2023-11-18T01:54:54;51;48;
47741;PMS5003;33504;52.066;6.096;2023-11-18T01:57:21;56;50;
47741;PMS5003;33504;52.066;6.096;2023-11-18T01:59:49;61;58;
47741;PMS5003;33504;52.066;6.096;2023-11-18T02:02:16;58;54;
47741;PMS5003;33504;52.066;6.096;2023-11-18T02:04:43;59;54;
47741;PMS5003;33504;52.066;6.096;2023-11-18T02:07:11;62;58;
47741;PMS5003;33504;52.066;6.096;2023-11-18T02:09:38;70;62;
47741;PMS5003;33504;52.066;6.096;2023-11-18T02:12:08;67;64;
47741;PMS5003;33504;52.066;6.096;2023-11-18T02:14:45;60;56;
47741;PMS5003;33504;52.066;6.096;2023-11-18T02:17:14;65;59;
47741;PMS5003;33504;52.066;6.096;2023-11-18T02:19:46;65;60;
47741;PMS5003;33504;52.066;6.096;2023-11-18T02:22:14;61;58;
47741;PMS5003;33504;52.066;6.096;2023-11-18T02:24:41;66;63;
47741;PMS5003;33504;52.066;6.096;2023-11-18T02:27:09;62;59;
47741;PMS5003;33504;52.066;6.096;2023-11-18T02:29:37;68;63;
47741;PMS5003;33504;52.066;6.096;2023-11-18T02:32:09;62;59;
47741;PMS5003;33504;52.066;6.096;2023-11-18T02:34:45;61;58;
47741;PMS5003;33504;52.066;6.096;2023-11-18T02:37:19;62;58;
47741;PMS5003;33504;52.066;6.096;2023-11-18T02:39:48;67;62;
47741;PMS5003;33504;52.066;6.096;2023-11-18T02:42:23;64;59;
47741;PMS5003;33504;52.066;6.096;2023-11-18T02:44:50;71;64;
47741;PMS5003;33504;52.066;6.096;2023-11-18T02:47:19;76;71;
47741;PMS5003;33504;52.066;6.096;2023-11-18T02:49:49;71;68;
47741;PMS5003;33504;52.066;6.096;2023-11-18T02:52:20;78;68;
47741;PMS5003;33504;52.066;6.096;2023-11-18T02:54:47;76;69;
47741;PMS5003;33504;52.066;6.096;2023-11-18T02:57:14;69;63;
47741;PMS5003;33504;52.066;6.096;2023-11-18T02:59:41;78;74;
47741;PMS5003;33504;52.066;6.096;2023-11-18T03:02:07;82;68;
47741;PMS5003;33504;52.066;6.096;2023-11-18T03:04:34;76;69;
47741;PMS5003;33504;52.066;6.096;2023-11-18T03:07:01;76;73;
47741;PMS5003;33504;52.066;6.096;2023-11-18T03:09:29;83;76;
47741;PMS5003;33504;52.066;6.096;2023-11-18T03:11:55;76;69;
47741;PMS5003;33504;52.066;6.096;2023-11-18T03:14:22;88;80;
47741;PMS5003;33504;52.066;6.096;2023-11-18T03:16:49;81;73;
47741;PMS5003;33504;52.066;6.096;2023-11-18T03:19:16;72;69;
47741;PMS5003;33504;52.066;6.096;2023-11-18T03:21:43;84;76;
47741;PMS5003;33504;52.066;6.096;2023-11-18T03:24:10;86;78;
47741;PMS5003;33504;52.066;6.096;2023-11-18T03:26:37;78;70;
47741;PMS5003;33504;52.066;6.096;2023-11-18T03:29:04;77;70;
47741;PMS5003;33504;52.066;6.096;2023-11-18T03:31:31;76;71;
47741;PMS5003;33504;52.066;6.096;2023-11-18T03:33:58;76;73;
47741;PMS5003;33504;52.066;6.096;2023-11-18T03:36:25;86;80;
47741;PMS5003;33504;52.066;6.096;2023-11-18T03:38:52;84;77;
47741;PMS5003;33504;52.066;6.096;2023-11-18T03:41:20;96;81;
47741;PMS5003;33504;52.066;6.096;2023-11-18T03:43:46;79;75;
47741;PMS5003;33504;52.066;6.096;2023-11-18T03:46:14;70;66;
47741;PMS5003;33504;52.066;6.096;2023-11-18T03:48:41;84;78;
47741;PMS5003;33504;52.066;6.096;2023-11-18T03:51:11;76;73;
47741;PMS5003;33504;52.066;6.096;2023-11-18T03:53:38;83;74;
47741;PMS5003;33504;52.066;6.096;2023-11-18T03:56:05;86;76;
47741;PMS5003;33504;52.066;6.096;2023-11-18T03:58:33;86;78;
47741;PMS5003;33504;52.066;6.096;2023-11-18T04:01:00;78;72;
47741;PMS5003;33504;52.066;6.096;2023-11-18T04:03:27;90;85;
47741;PMS5003;33504;52.066;6.096;2023-11-18T04:05:54;86;78;
47741;PMS5003;33504;52.066;6.096;2023-11-18T04:08:20;88;81;
47741;PMS5003;33504;52.066;6.096;2023-11-18T04:10:47;87;73;
47741;PMS5003;33504;52.066;6.096;2023-11-18T04:13:15;80;76;
47741;PMS5003;33504;52.066;6.096;2023-11-18T04:15:42;84;77;
47741;PMS5003;33504;52.066;6.096;2023-11-18T04:18:09;78;75;
47741;PMS5003;33504;52.066;6.096;2023-11-18T04:20:36;93;82;
47741;PMS5003;33504;52.066;6.096;2023-11-18T04:23:03;89;79;
47741;PMS5003;33504;52.066;6.096;2023-11-18T04:25:30;82;72;
47741;PMS5003;33504;52.066;6.096;2023-11-18T04:27:58;82;79;
47741;PMS5003;33504;52.066;6.096;2023-11-18T04:30:25;79;74;
47741;PMS5003;33504;52.066;6.096;2023-11-18T04:32:52;81;72;
47741;PMS5003;33504;52.066;6.096;2023-11-18T04:35:19;90;82;
47741;PMS5003;33504;52.066;6.096;2023-11-18T04:37:46;81;75;
47741;PMS5003;33504;52.066;6.096;2023-11-18T04:40:14;81;76;
47741;PMS5003;33504;52.066;6.096;2023-11-18T04:42:41;80;73;
47741;PMS5003;33504;52.066;6.096;2023-11-18T04:45:08;84;74;
47741;PMS5003;33504;52.066;6.096;2023-11-18T04:47:36;83;76;
47741;PMS5003;33504;52.066;6.096;2023-11-18T04:50:03;82;73;
47741;PMS5003;33504;52.066;6.096;2023-11-18T04:52:31;77;71;
47741;PMS5003;33504;52.066;6.096;2023-11-18T04:54:58;77;72;
47741;PMS5003;33504;52.066;6.096;2023-11-18T04:57:25;77;72;
47741;PMS5003;33504;52.066;6.096;2023-11-18T04:59:52;81;73;
47741;PMS5003;33504;52.066;6.096;2023-11-18T05:02:19;79;76;
47741;PMS5003;33504;52.066;6.096;2023-11-18T05:04:46;80;76;
47741;PMS5003;33504;52.066;6.096;2023-11-18T05:07:13;70;66;
47741;PMS5003;33504;52.066;6.096;2023-11-18T05:09:40;79;72;
47741;PMS5003;33504;52.066;6.096;2023-11-18T05:12:07;73;66;
47741;PMS5003;33504;52.066;6.096;2023-11-18T05:14:34;74;69;
47741;PMS5003;33504;52.066;6.096;2023-11-18T05:17:01;74;68;
47741;PMS5003;33504;52.066;6.096;2023-11-18T05:19:28;76;73;
47741;PMS5003;33504;52.066;6.096;2023-11-18T05:21:55;74;69;
47741;PMS5003;33504;52.066;6.096;2023-11-18T05:24:22;75;71;
47741;PMS5003;33504;52.066;6.096;2023-11-18T05:26:50;69;65;
47741;PMS5003;33504;52.066;6.096;2023-11-18T05:29:17;70;66;
47741;PMS5003;33504;52.066;6.096;2023-11-18T05:31:44;81;72;
47741;PMS5003;33504;52.066;6.096;2023-11-18T05:34:10;71;67;
47741;PMS5003;33504;52.066;6.096;2023-11-18T05:36:38;77;71;
47741;PMS5003;33504;52.066;6.096;2023-11-18T05:39:04;73;69;
47741;PMS5003;33504;52.066;6.096;2023-11-18T05:41:31;75;73;
47741;PMS5003;33504;52.066;6.096;2023-11-18T05:43:58;75;71;
47741;PMS5003;33504;52.066;6.096;2023-11-18T05:46:25;76;71;
47741;PMS5003;33504;52.066;6.096;2023-11-18T05:48:52;80;77;
47741;PMS5003;33504;52.066;6.096;2023-11-18T05:51:20;74;69;
47741;PMS5003;33504;52.066;6.096;2023-11-18T05:53:48;77;72;
47741;PMS5003;33504;52.066;6.096;2023-11-18T05:56:15;76;69;
47741;PMS5003;33504;52.066;6.096;2023-11-18T05:58:43;76;70;
47741;PMS5003;33504;52.066;6.096;2023-11-18T06:01:10;66;65;
47741;PMS5003;33504;52.066;6.096;2023-11-18T06:03:38;74;71;
47741;PMS5003;33504;52.066;6.096;2023-11-18T06:06:06;65;62;
47741;PMS5003;33504;52.066;6.096;2023-11-18T06:08:35;76;70;
47741;PMS5003;33504;52.066;6.096;2023-11-18T06:11:03;72;67;
47741;PMS5003;33504;52.066;6.096;2023-11-18T06:13:30;67;61;
47741;PMS5003;33504;52.066;6.096;2023-11-18T06:15:58;67;64;
47741;PMS5003;33504;52.066;6.096;2023-11-18T06:18:25;73;67;
47741;PMS5003;33504;52.066;6.096;2023-11-18T06:20:52;62;60;
47741;PMS5003;33504;52.066;6.096;2023-11-18T06:23:18;63;60;
47741;PMS5003;33504;52.066;6.096;2023-11-18T06:25:46;67;63;
47741;PMS5003;33504;52.066;6.096;2023-11-18T06:28:13;70;63;
47741;PMS5003;33504;52.066;6.096;2023-11-18T06:30:40;65;59;
47741;PMS5003;33504;52.066;6.096;2023-11-18T06:33:07;68;63;
47741;PMS5003;33504;52.066;6.096;2023-11-18T06:35:34;56;56;
47741;PMS5003;33504;52.066;6.096;2023-11-18T06:38:01;63;59;
47741;PMS5003;33504;52.066;6.096;2023-11-18T06:40:28;67;62;
47741;PMS5003;33504;52.066;6.096;2023-11-18T06:42:55;60;56;
47741;PMS5003;33504;52.066;6.096;2023-11-18T06:45:22;65;59;
47741;PMS5003;33504;52.066;6.096;2023-11-18T06:47:49;71;61;
47741;PMS5003;33504;52.066;6.096;2023-11-18T06:50:16;66;62;
47741;PMS5003;33504;52.066;6.096;2023-11-18T06:52:43;61;58;
47741;PMS5003;33504;52.066;6.096;2023-11-18T06:55:10;62;60;
47741;PMS5003;33504;52.066;6.096;2023-11-18T06:57:38;68;62;
47741;PMS5003;33504;52.066;6.096;2023-11-18T07:00:06;59;55;
47741;PMS5003;33504;52.066;6.096;2023-11-18T07:02:33;59;55;
47741;PMS5003;33504;52.066;6.096;2023-11-18T07:05:00;59;57;
47741;PMS5003;33504;52.066;6.096;2023-11-18T07:07:27;48;45;
47741;PMS5003;33504;52.066;6.096;2023-11-18T07:09:54;65;59;
47741;PMS5003;33504;52.066;6.096;2023-11-18T07:12:21;60;55;
47741;PMS5003;33504;52.066;6.096;2023-11-18T07:14:48;62;58;
47741;PMS5003;33504;52.066;6.096;2023-11-18T07:17:15;55;53;
47741;PMS5003;33504;52.066;6.096;2023-11-18T07:19:42;63;57;
47741;PMS5003;33504;52.066;6.096;2023-11-18T07:22:09;55;51;
47741;PMS5003;33504;52.066;6.096;2023-11-18T07:24:36;60;54;
47741;PMS5003;33504;52.066;6.096;2023-11-18T07:27:04;59;54;
47741;PMS5003;33504;52.066;6.096;2023-11-18T07:29:31;55;53;
47741;PMS5003;33504;52.066;6.096;2023-11-18T07:31:58;57;53;
47741;PMS5003;33504;52.066;6.096;2023-11-18T07:34:25;50;50;
47741;PMS5003;33504;52.066;6.096;2023-11-18T07:36:52;50;47;
47741;PMS5003;33504;52.066;6.096;2023-11-18T07:39:20;59;49;
47741;PMS5003;33504;52.066;6.096;2023-11-18T07:41:47;51;49;
47741;PMS5003;33504;52.066;6.096;2023-11-18T07:44:14;50;48;
47741;PMS5003;33504;52.066;6.096;2023-11-18T07:46:41;49;46;
47741;PMS5003;33504;52.066;6.096;2023-11-18T07:49:08;54;49;
47741;PMS5003;33504;52.066;6.096;2023-11-18T07:51:36;48;45;
47741;PMS5003;33504;52.066;6.096;2023-11-18T07:54:03;49;46;
47741;PMS5003;33504;52.066;6.096;2023-11-18T07:56:30;46;45;
47741;PMS5003;33504;52.066;6.096;2023-11-18T07:58:57;53;49;
47741;PMS5003;33504;52.066;6.096;2023-11-18T08:01:24;53;50;
47741;PMS5003;33504;52.066;6.096;2023-11-18T08:03:51;46;43;
47741;PMS5003;33504;52.066;6.096;2023-11-18T08:06:18;50;48;
47741;PMS5003;33504;52.066;6.096;2023-11-18T08:08:45;46;46;
47741;PMS5003;33504;52.066;6.096;2023-11-18T08:11:12;45;43;
47741;PMS5003;33504;52.066;6.096;2023-11-18T08:13:40;52;50;
47741;PMS5003;33504;52.066;6.096;2023-11-18T08:16:07;39;36;
47741;PMS5003;33504;52.066;6.096;2023-11-18T08:18:34;48;45;
47741;PMS5003;33504;52.066;6.096;2023-11-18T08:21:01;52;50;
47741;PMS5003;33504;52.066;6.096;2023-11-18T08:23:28;55;49;
47741;PMS5003;33504;52.066;6.096;2023-11-18T08:25:56;55;50;
47741;PMS5003;33504;52.066;6.096;2023-11-18T08:28:23;46;41;
47741;PMS5003;33504;52.066;6.096;2023-11-18T08:30:51;51;46;
47741;PMS5003;33504;52.066;6.096;2023-11-18T08:33:18;46;44;
47741;PMS5003;33504;52.066;6.096;2023-11-18T08:35:46;47;43;
47741;PMS5003;33504;52.066;6.096;2023-11-18T08:38:12;51;46;
47741;PMS5003;33504;52.066;6.096;2023-11-18T08:40:39;59;56;
47741;PMS5003;33504;52.066;6.096;2023-11-18T08:43:06;46;44;
47741;PMS5003;33504;52.066;6.096;2023-11-18T08:45:34;51;50;
47741;PMS5003;33504;52.066;6.096;2023-11-18T08:48:02;52;50;
47741;PMS5003;33504;52.066;6.096;2023-11-18T08:50:30;44;43;
47741;PMS5003;33504;52.066;6.096;2023-11-18T08:52:57;47;45;
47741;PMS5003;33504;52.066;6.096;2023-11-18T08:55:25;49;46;
47741;PMS5003;33504;52.066;6.096;2023-11-18T08:57:54;54;48;
47741;PMS5003;33504;52.066;6.096;2023-11-18T09:00:21;45;40;
47741;PMS5003;33504;52.066;6.096;2023-11-18T09:02:48;47;45;
47741;PMS5003;33504;52.066;6.096;2023-11-18T09:05:15;49;44;
47741;PMS5003;33504;52.066;6.096;2023-11-18T09:07:42;44;41;
47741;PMS5003;33504;52.066;6.096;2023-11-18T09:10:10;41;36;
47741;PMS5003;33504;52.066;6.096;2023-11-18T09:12:37;51;47;
47741;PMS5003;33504;52.066;6.096;2023-11-18T09:15:04;54;50;
47741;PMS5003;33504;52.066;6.096;2023-11-18T09:17:31;44;41;
47741;PMS5003;33504;52.066;6.096;2023-11-18T09:19:58;47;44;
47741;PMS5003;33504;52.066;6.096;2023-11-18T09:22:25;48;45;
47741;PMS5003;33504;52.066;6.096;2023-11-18T09:24:53;42;40;
47741;PMS5003;33504;52.066;6.096;2023-11-18T09:27:20;52;44;
47741;PMS5003;33504;52.066;6.096;2023-11-18T09:29:47;48;43;
47741;PMS5003;33504;52.066;6.096;2023-11-18T09:32:14;44;38;
47741;PMS5003;33504;52.066;6.096;2023-11-18T09:34:41;44;38;
47741;PMS5003;33504;52.066;6.096;2023-11-18T09:37:08;43;40;
47741;PMS5003;33504;52.066;6.096;2023-11-18T09:39:35;42;36;
47741;PMS5003;33504;52.066;6.096;2023-11-18T09:42:04;44;42;
47741;PMS5003;33504;52.066;6.096;2023-11-18T09:44:32;42;40;
47741;PMS5003;33504;52.066;6.096;2023-11-18T09:46:59;39;37;
47741;PMS5003;33504;52.066;6.096;2023-11-18T09:49:31;43;37;
47741;PMS5003;33504;52.066;6.096;2023-11-18T09:51:59;34;33;
47741;PMS5003;33504;52.066;6.096;2023-11-18T09:54:30;35;32;
47741;PMS5003;33504;52.066;6.096;2023-11-18T09:57:03;36;35;
47741;PMS5003;33504;52.066;6.096;2023-11-18T09:59:37;39;38;
47741;PMS5003;33504;52.066;6.096;2023-11-18T10:02:09;38;34;
47741;PMS5003;33504;52.066;6.096;2023-11-18T10:04:37;38;33;
47741;PMS5003;33504;52.066;6.096;2023-11-18T10:07:05;37;36;
47741;PMS5003;33504;52.066;6.096;2023-11-18T10:09:33;35;32;
47741;PMS5003;33504;52.066;6.096;2023-11-18T10:12:00;33;32;
47741;PMS5003;33504;52.066;6.096;2023-11-18T10:14:26;43;40;
47741;PMS5003;33504;52.066;6.096;2023-11-18T10:16:54;31;29;
47741;PMS5003;33504;52.066;6.096;2023-11-18T10:19:20;30;28;
47741;PMS5003;33504;52.066;6.096;2023-11-18T10:21:48;32;30;
47741;PMS5003;33504;52.066;6.096;2023-11-18T10:24:15;33;32;
47741;PMS5003;33504;52.066;6.096;2023-11-18T10:26:42;38;34;
47741;PMS5003;33504;52.066;6.096;2023-11-18T10:29:10;33;30;
47741;PMS5003;33504;52.066;6.096;2023-11-18T10:31:37;33;31;
47741;PMS5003;33504;52.066;6.096;2023-11-18T10:34:05;29;28;
47741;PMS5003;33504;52.066;6.096;2023-11-18T10:36:32;40;39;
47741;PMS5003;33504;52.066;6.096;2023-11-18T10:38:59;32;30;
47741;PMS5003;33504;52.066;6.096;2023-11-18T10:41:28;29;28;
47741;PMS5003;33504;52.066;6.096;2023-11-18T10:44:05;26;24;
47741;PMS5003;33504;52.066;6.096;2023-11-18T10:46:33;25;24;
47741;PMS5003;33504;52.066;6.096;2023-11-18T10:49:00;32;30;
47741;PMS5003;33504;52.066;6.096;2023-11-18T10:51:27;30;29;
47741;PMS5003;33504;52.066;6.096;2023-11-18T10:53:55;26;25;
47741;PMS5003;33504;52.066;6.096;2023-11-18T10:56:22;26;23;
47741;PMS5003;33504;52.066;6.096;2023-11-18T10:58:50;30;30;
47741;PMS5003;33504;52.066;6.096;2023-11-18T11:01:26;32;30;
47741;PMS5003;33504;52.066;6.096;2023-11-18T11:03:55;27;26;
47741;PMS5003;33504;52.066;6.096;2023-11-18T11:06:22;32;31;
47741;PMS5003;33504;52.066;6.096;2023-11-18T11:08:50;33;31;
47741;PMS5003;33504;52.066;6.096;2023-11-18T11:11:18;26;25;
47741;PMS5003;33504;52.066;6.096;2023-11-18T11:13:48;35;34;
47741;PMS5003;33504;52.066;6.096;2023-11-18T11:16:18;32;30;
47741;PMS5003;33504;52.066;6.096;2023-11-18T11:18:47;41;35;
47741;PMS5003;33504;52.066;6.096;2023-11-18T11:21:19;32;29;
47741;PMS5003;33504;52.066;6.096;2023-11-18T11:23:50;37;33;
47741;PMS5003;33504;52.066;6.096;2023-11-18T11:26:23;35;31;
47741;PMS5003;33504;52.066;6.096;2023-11-18T11:29:01;31;29;
47741;PMS5003;33504;52.066;6.096;2023-11-18T11:31:34;29;29;
47741;PMS5003;33504;52.066;6.096;2023-11-18T11:34:06;38;34;
47741;PMS5003;33504;52.066;6.096;2023-11-18T11:36:41;32;30;
47741;PMS5003;33504;52.066;6.096;2023-11-18T11:39:09;34;32;
47741;PMS5003;33504;52.066;6.096;2023-11-18T11:41:37;33;32;
47741;PMS5003;33504;52.066;6.096;2023-11-18T11:44:05;30;26;
47741;PMS5003;33504;52.066;6.096;2023-11-18T11:46:33;34;30;
47741;PMS5003;33504;52.066;6.096;2023-11-18T11:49:01;37;34;
47741;PMS5003;33504;52.066;6.096;2023-11-18T11:51:30;33;31;
47741;PMS5003;33504;52.066;6.096;2023-11-18T11:54:06;32;29;
47741;PMS5003;33504;52.066;6.096;2023-11-18T11:56:39;29;28;
47741;PMS5003;33504;52.066;6.096;2023-11-18T11:59:07;40;35;
47741;PMS5003;33504;52.066;6.096;2023-11-18T12:01:35;34;31;
47741;PMS5003;33504;52.066;6.096;2023-11-18T12:04:02;25;24;
47741;PMS5003;33504;52.066;6.096;2023-11-18T12:06:30;38;33;
47741;PMS5003;33504;52.066;6.096;2023-11-18T12:08:59;34;31;
47741;PMS5003;33504;52.066;6.096;2023-11-18T12:11:26;32;29;
47741;PMS5003;33504;52.066;6.096;2023-11-18T12:14:00;27;26;
47741;PMS5003;33504;52.066;6.096;2023-11-18T12:16:44;28;28;
47741;PMS5003;33504;52.066;6.096;2023-11-18T12:19:32;27;24;
47741;PMS5003;33504;52.066;6.096;2023-11-18T12:21:59;30;28;
47741;PMS5003;33504;52.066;6.096;2023-11-18T12:24:27;25;25;
47741;PMS5003;33504;52.066;6.096;2023-11-18T12:26:54;27;26;
47741;PMS5003;33504;52.066;6.096;2023-11-18T12:29:40;29;27;
47741;PMS5003;33504;52.066;6.096;2023-11-18T12:32:07;28;26;
47741;PMS5003;33504;52.066;6.096;2023-11-18T12:34:51;25;24;
47741;PMS5003;33504;52.066;6.096;2023-11-18T12:37:28;21;21;
47741;PMS5003;33504;52.066;6.096;2023-11-18T12:40:21;28;27;
47741;PMS5003;33504;52.066;6.096;2023-11-18T12:43:00;23;22;
47741;PMS5003;33504;52.066;6.096;2023-11-18T12:45:35;20;20;
47741;PMS5003;33504;52.066;6.096;2023-11-18T12:48:10;22;22;
47741;PMS5003;33504;52.066;6.096;2023-11-18T12:50:41;20;17;
47741;PMS5003;33504;52.066;6.096;2023-11-18T12:53:09;25;24;
47741;PMS5003;33504;52.066;6.096;2023-11-18T12:55:36;20;18;
47741;PMS5003;33504;52.066;6.096;2023-11-18T12:58:06;27;27;
47741;PMS5003;33504;52.066;6.096;2023-11-18T13:00:34;20;17;
47741;PMS5003;33504;52.066;6.096;2023-11-18T13:03:00;27;25;
47741;PMS5003;33504;52.066;6.096;2023-11-18T13:05:27;20;20;
47741;PMS5003;33504;52.066;6.096;2023-11-18T13:07:54;16;15;
47741;PMS5003;33504;52.066;6.096;2023-11-18T13:10:22;21;19;
47741;PMS5003;33504;52.066;6.096;2023-11-18T13:12:49;18;15;
47741;PMS5003;33504;52.066;6.096;2023-11-18T13:15:16;18;16;
47741;PMS5003;33504;52.066;6.096;2023-11-18T13:17:56;16;14;
47741;PMS5003;33504;52.066;6.096;2023-11-18T13:20:24;13;13;
47741;PMS5003;33504;52.066;6.096;2023-11-18T13:22:50;12;12;
47741;PMS5003;33504;52.066;6.096;2023-11-18T13:25:17;15;14;
47741;PMS5003;33504;52.066;6.096;2023-11-18T13:27:45;16;15;
47741;PMS5003;33504;52.066;6.096;2023-11-18T13:30:12;13;13;
47741;PMS5003;33504;52.066;6.096;2023-11-18T13:32:40;17;16;
47741;PMS5003;33504;52.066;6.096;2023-11-18T13:35:08;14;14;
47741;PMS5003;33504;52.066;6.096;2023-11-18T13:37:35;14;14;
47741;PMS5003;33504;52.066;6.096;2023-11-18T13:40:02;13;13;
47741;PMS5003;33504;52.066;6.096;2023-11-18T13:42:31;15;13;
47741;PMS5003;33504;52.066;6.096;2023-11-18T13:44:58;14;14;
47741;PMS5003;33504;52.066;6.096;2023-11-18T13:47:27;12;11;
47741;PMS5003;33504;52.066;6.096;2023-11-18T13:49:54;16;15;
47741;PMS5003;33504;52.066;6.096;2023-11-18T13:52:21;16;15;
47741;PMS5003;33504;52.066;6.096;2023-11-18T13:54:48;15;14;
47741;PMS5003;33504;52.066;6.096;2023-11-18T13:57:15;14;14;
47741;PMS5003;33504;52.066;6.096;2023-11-18T13:59:42;17;15;
47741;PMS5003;33504;52.066;6.096;2023-11-18T14:02:09;16;16;
47741;PMS5003;33504;52.066;6.096;2023-11-18T14:04:38;15;13;
47741;PMS5003;33504;52.066;6.096;2023-11-18T14:07:06;15;15;
47741;PMS5003;33504;52.066;6.096;2023-11-18T14:09:33;17;17;
47741;PMS5003;33504;52.066;6.096;2023-11-18T14:12:00;18;17;
47741;PMS5003;33504;52.066;6.096;2023-11-18T14:14:28;17;17;
47741;PMS5003;33504;52.066;6.096;2023-11-18T14:16:55;16;16;
47741;PMS5003;33504;52.066;6.096;2023-11-18T14:19:22;15;15;
47741;PMS5003;33504;52.066;6.096;2023-11-18T14:21:49;18;16;
47741;PMS5003;33504;52.066;6.096;2023-11-18T14:24:16;15;14;
47741;PMS5003;33504;52.066;6.096;2023-11-18T14:26:44;13;13;
47741;PMS5003;33504;52.066;6.096;2023-11-18T14:29:11;14;14;
47741;PMS5003;33504;52.066;6.096;2023-11-18T14:31:39;14;13;
47741;PMS5003;33504;52.066;6.096;2023-11-18T14:34:06;21;19;
47741;PMS5003;33504;52.066;6.096;2023-11-18T14:36:33;16;15;
47741;PMS5003;33504;52.066;6.096;2023-11-18T14:39:00;17;15;
47741;PMS5003;33504;52.066;6.096;2023-11-18T14:41:27;16;16;
47741;PMS5003;33504;52.066;6.096;2023-11-18T14:43:55;14;13;
47741;PMS5003;33504;52.066;6.096;2023-11-18T14:46:21;16;15;
47741;PMS5003;33504;52.066;6.096;2023-11-18T14:48:48;15;15;
47741;PMS5003;33504;52.066;6.096;2023-11-18T14:51:15;16;16;
47741;PMS5003;33504;52.066;6.096;2023-11-18T14:53:43;22;20;
47741;PMS5003;33504;52.066;6.096;2023-11-18T14:56:09;17;15;
47741;PMS5003;33504;52.066;6.096;2023-11-18T14:58:38;13;11;
47741;PMS5003;33504;52.066;6.096;2023-11-18T15:01:05;16;15;
47741;PMS5003;33504;52.066;6.096;2023-11-18T15:03:31;12;12;
47741;PMS5003;33504;52.066;6.096;2023-11-18T15:05:58;15;14;
47741;PMS5003;33504;52.066;6.096;2023-11-18T15:08:26;15;15;
47741;PMS5003;33504;52.066;6.096;2023-11-18T15:10:53;15;15;
47741;PMS5003;33504;52.066;6.096;2023-11-18T15:13:19;17;17;
47741;PMS5003;33504;52.066;6.096;2023-11-18T15:15:46;11;11;
47741;PMS5003;33504;52.066;6.096;2023-11-18T15:18:13;15;14;
47741;PMS5003;33504;52.066;6.096;2023-11-18T15:20:40;16;16;
47741;PMS5003;33504;52.066;6.096;2023-11-18T15:23:08;13;12;
47741;PMS5003;33504;52.066;6.096;2023-11-18T15:25:36;20;19;
47741;PMS5003;33504;52.066;6.096;2023-11-18T15:28:04;13;13;
47741;PMS5003;33504;52.066;6.096;2023-11-18T15:30:31;16;15;
47741;PMS5003;33504;52.066;6.096;2023-11-18T15:32:59;16;16;
47741;PMS5003;33504;52.066;6.096;2023-11-18T15:35:26;16;16;
47741;PMS5003;33504;52.066;6.096;2023-11-18T15:37:53;16;15;
47741;PMS5003;33504;52.066;6.096;2023-11-18T15:40:21;13;13;
47741;PMS5003;33504;52.066;6.096;2023-11-18T15:42:49;14;13;
47741;PMS5003;33504;52.066;6.096;2023-11-18T15:45:16;21;21;
47741;PMS5003;33504;52.066;6.096;2023-11-18T15:47:44;16;16;
47741;PMS5003;33504;52.066;6.096;2023-11-18T15:50:12;22;22;
47741;PMS5003;33504;52.066;6.096;2023-11-18T15:52:41;17;16;
47741;PMS5003;33504;52.066;6.096;2023-11-18T15:55:08;15;15;
47741;PMS5003;33504;52.066;6.096;2023-11-18T15:57:36;15;13;
47741;PMS5003;33504;52.066;6.096;2023-11-18T16:00:04;15;15;
47741;PMS5003;33504;52.066;6.096;2023-11-18T16:02:32;13;12;
47741;PMS5003;33504;52.066;6.096;2023-11-18T16:04:59;12;11;
47741;PMS5003;33504;52.066;6.096;2023-11-18T16:07:26;11;11;
47741;PMS5003;33504;52.066;6.096;2023-11-18T16:09:53;15;15;
47741;PMS5003;33504;52.066;6.096;2023-11-18T16:12:19;14;13;
47741;PMS5003;33504;52.066;6.096;2023-11-18T16:14:46;15;15;
47741;PMS5003;33504;52.066;6.096;2023-11-18T16:17:13;19;19;
47741;PMS5003;33504;52.066;6.096;2023-11-18T16:19:40;19;19;
47741;PMS5003;33504;52.066;6.096;2023-11-18T16:22:07;17;17;
47741;PMS5003;33504;52.066;6.096;2023-11-18T16:24:35;17;16;